createdAt,value
2023-05-23T00:01:58.320Z,99981.66
2023-05-23T00:04:03.643Z,99981.3
2023-05-23T00:06:08.902Z,99973.08
2023-05-23T00:08:14.339Z,99969.84
2023-05-23T00:10:19.728Z,99971.03
2023-05-23T00:12:25.018Z,99975.67
2023-05-23T00:14:30.447Z,99973.89
2023-05-23T00:16:35.924Z,99979.01
2023-05-23T00:18:41.158Z,99968.77
2023-05-23T00:20:46.528Z,99971.98
2023-05-23T00:22:51.804Z,99971.73
2023-05-23T00:24:57.117Z,99964.28
2023-05-23T00:27:02.280Z,99963.7
2023-05-23T00:29:07.619Z,99971.14
2023-05-23T00:31:13.026Z,99966.61
2023-05-23T00:33:18.392Z,99961.92
2023-05-23T00:35:23.521Z,99963.07
2023-05-23T00:37:28.859Z,99956.34
2023-05-23T00:39:34.104Z,99967.2
2023-05-23T00:41:39.289Z,99956.48
2023-05-23T00:43:44.470Z,99961.47
2023-05-23T00:45:49.923Z,99961.97
2023-05-23T00:47:55.392Z,99958.48
2023-05-23T00:50:00.902Z,99959.98
2023-05-23T00:52:06.347Z,99958.27
2023-05-23T00:54:11.704Z,99955.05
2023-05-23T00:56:17.010Z,99950.2
2023-05-23T00:58:22.231Z,99949.24
2023-05-23T01:00:27.542Z,99956.05
2023-05-23T01:02:33.329Z,99957.7
2023-05-23T01:04:38.766Z,99955.45
2023-05-23T01:06:43.902Z,99953.64
2023-05-23T01:08:49.130Z,99951.02
2023-05-23T01:10:54.264Z,99946.45
2023-05-23T01:12:59.499Z,99954.08
2023-05-23T01:15:04.876Z,99952.13
2023-05-23T01:17:10.182Z,99954.86
2023-05-23T01:19:15.539Z,99946.84
2023-05-23T01:21:20.948Z,99949.94
2023-05-23T01:23:26.147Z,99945.56
2023-05-23T01:25:31.316Z,99948.72
2023-05-23T01:27:36.667Z,99952.13
2023-05-23T01:29:41.908Z,99947.84
2023-05-23T01:31:47.243Z,99950.86
2023-05-23T01:33:52.663Z,99948.81
2023-05-23T01:35:57.975Z,99952.5
2023-05-23T01:38:03.151Z,99949.47
2023-05-23T01:40:08.590Z,99944.45
2023-05-23T01:42:13.897Z,99949.11
2023-05-23T01:44:21.702Z,99948.22
2023-05-23T01:46:27.106Z,99942.44
2023-05-23T01:48:32.602Z,99942.5
2023-05-23T01:50:37.945Z,99937.39
2023-05-23T01:52:43.276Z,99938.2
2023-05-23T01:54:48.591Z,99936.75
2023-05-23T01:56:54.062Z,99932.03
2023-05-23T01:58:59.306Z,99927.48
2023-05-23T02:01:04.660Z,99932.95
2023-05-23T02:03:10.092Z,99926.36
2023-05-23T02:05:15.509Z,99926.5
2023-05-23T02:07:20.853Z,99922.69
2023-05-23T02:09:26.098Z,99918.36
2023-05-23T02:11:31.441Z,99909.31
2023-05-23T02:14:24.454Z,99909.79
2023-05-23T02:16:29.795Z,99908.36
2023-05-23T02:18:34.963Z,99909.52
2023-05-23T02:20:40.204Z,99909.98
2023-05-23T02:22:45.428Z,99902
2023-05-23T02:24:50.658Z,99901.55
2023-05-23T02:26:55.791Z,99893.08
2023-05-23T02:29:00.981Z,99895.25
2023-05-23T02:31:06.269Z,99892.8
2023-05-23T02:33:11.827Z,99891.26
2023-05-23T02:35:17.165Z,99893.34
2023-05-23T02:37:22.261Z,99887.14
2023-05-23T02:39:27.427Z,99889.19
2023-05-23T02:41:32.670Z,99887.48
2023-05-23T02:43:37.890Z,99889.11
2023-05-23T02:45:43.752Z,99889.98
2023-05-23T02:47:49.060Z,99891.18
2023-05-23T02:49:54.434Z,99899.31
2023-05-23T02:51:59.661Z,99895.09
2023-05-23T02:54:04.903Z,99894.93
2023-05-23T02:56:10.444Z,99891.28
2023-05-23T02:58:15.775Z,99882.96
2023-05-23T03:00:20.894Z,99881.68
2023-05-23T03:02:26.162Z,99880.83
2023-05-23T03:04:31.699Z,99876.28
2023-05-23T03:06:37.222Z,99869.67
2023-05-23T03:08:42.681Z,99871.39
2023-05-23T03:10:48.019Z,99866.45
2023-05-23T03:12:53.461Z,99864.75
2023-05-23T03:14:58.903Z,99865.02
2023-05-23T03:17:04.381Z,99861.62
2023-05-23T03:19:09.861Z,99860.3
2023-05-23T03:21:15.321Z,99861.45
2023-05-23T03:23:20.746Z,99862.39
2023-05-23T03:25:26.209Z,99858.83
2023-05-23T03:27:31.662Z,99859.85
2023-05-23T03:29:37.085Z,99855.48
2023-05-23T03:31:42.561Z,99860.23
2023-05-23T03:33:48.067Z,99863.42
2023-05-23T03:35:53.510Z,99855.62
2023-05-23T03:37:58.942Z,99858.41
2023-05-23T03:40:04.390Z,99863.19
2023-05-23T03:42:09.840Z,99856.37
2023-05-23T03:44:15.268Z,99858.06
2023-05-23T03:46:20.849Z,99859.26
2023-05-23T03:48:26.340Z,99863.38
2023-05-23T03:50:31.685Z,99862.35
2023-05-23T03:52:37.045Z,99861.44
2023-05-23T03:54:42.381Z,99858.58
2023-05-23T03:56:47.637Z,99860.09
2023-05-23T03:58:53.059Z,99862.16
2023-05-23T04:03:06.570Z,99864.59
2023-05-23T04:05:12.129Z,99857.45
2023-05-23T04:07:17.769Z,99861.02
2023-05-23T04:09:23.214Z,99860.75
2023-05-23T04:11:28.593Z,99860.2
2023-05-23T04:13:33.989Z,99858.23
2023-05-23T04:15:39.865Z,99860.01
2023-05-23T04:17:45.879Z,99855.57
2023-05-23T04:19:51.231Z,99854.33
2023-05-23T04:21:56.509Z,99852.86
2023-05-23T04:24:01.698Z,99848.89
2023-05-23T04:26:06.923Z,99853.03
2023-05-23T04:28:12.469Z,99852.17
2023-05-23T04:30:17.920Z,99855.63
2023-05-23T04:32:23.280Z,99852.06
2023-05-23T04:34:28.858Z,99852.63
2023-05-23T04:36:34.343Z,99848.03
2023-05-23T04:38:39.505Z,99842.41
2023-05-23T04:40:44.709Z,99837.66
2023-05-23T04:42:49.836Z,99832.92
2023-05-23T04:44:54.974Z,99828.95
2023-05-23T04:47:00.339Z,99821.64
2023-05-23T04:49:05.815Z,99826.2
2023-05-23T04:51:10.982Z,99822.77
2023-05-23T04:53:16.393Z,99827.97
2023-05-23T04:55:22.588Z,99817.5
2023-05-23T04:57:28.237Z,99815.08
2023-05-23T04:59:33.563Z,99811.69
2023-05-23T05:01:39.038Z,99804.98
2023-05-23T05:03:44.533Z,99810.78
2023-05-23T05:05:49.994Z,99812.91
2023-05-23T05:07:55.610Z,99811.36
2023-05-23T05:10:02.468Z,99812.93
2023-05-23T05:12:07.748Z,99809.91
2023-05-23T05:14:12.875Z,99811.03
2023-05-23T05:16:18.123Z,99811
2023-05-23T05:18:23.392Z,99804.68
2023-05-23T05:20:28.789Z,99806.8
2023-05-23T05:22:34.002Z,99806.24
2023-05-23T05:24:39.260Z,99810.58
2023-05-23T05:26:44.473Z,99808.67
2023-05-23T05:28:49.734Z,99807.56
2023-05-23T05:30:55.003Z,99809.87
2023-05-23T05:33:00.384Z,99808.91
2023-05-23T05:35:05.690Z,99803.89
2023-05-23T05:37:10.949Z,99804.36
2023-05-23T05:39:16.106Z,99796.92
2023-05-23T05:41:21.241Z,99799.86
2023-05-23T05:43:26.600Z,99796.66
2023-05-23T05:45:31.964Z,99799.72
2023-05-23T05:47:37.227Z,99801.16
2023-05-23T05:49:42.540Z,99798.73
2023-05-23T05:51:47.838Z,99804.59
2023-05-23T05:53:53.271Z,99805.52
2023-05-23T05:55:58.376Z,99804.62
2023-05-23T05:58:03.648Z,99802.53
2023-05-23T06:00:09.084Z,99801.09
2023-05-23T06:02:14.355Z,99804.06
2023-05-23T06:04:19.797Z,99802.63
2023-05-23T06:06:24.987Z,99796.31
2023-05-23T06:08:30.395Z,99800.34
2023-05-23T06:10:35.532Z,99799.98
2023-05-23T06:12:40.810Z,99795.17
2023-05-23T06:14:46.499Z,99796.58
2023-05-23T06:16:52.725Z,99793.93
2023-05-23T06:18:58.044Z,99800.16
2023-05-23T06:21:03.291Z,99794.99
2023-05-23T06:23:08.328Z,99796.67
2023-05-23T06:25:13.664Z,99794.87
2023-05-23T06:27:18.733Z,99794.2
2023-05-23T06:29:23.799Z,99802.93
2023-05-23T06:31:28.918Z,99804.25
2023-05-23T06:33:34.194Z,99801.56
2023-05-23T06:35:39.538Z,99803.63
2023-05-23T06:37:44.863Z,99799.59
2023-05-23T06:39:50.204Z,99799.77
2023-05-23T06:41:55.437Z,99804.08
2023-05-23T06:44:00.777Z,99807.89
2023-05-23T06:46:06.352Z,99811.97
2023-05-23T06:48:11.670Z,99803.38
2023-05-23T06:50:16.883Z,99798.81
2023-05-23T06:52:22.000Z,99794.77
2023-05-23T06:54:27.201Z,99796.73
2023-05-23T06:56:32.380Z,99788.45
2023-05-23T06:58:37.617Z,99786.48
2023-05-23T07:00:43.577Z,99777.03
2023-05-23T07:02:49.113Z,99776.97
2023-05-23T07:04:54.577Z,99775.22
2023-05-23T07:06:59.888Z,99774.84
2023-05-23T07:09:05.291Z,99774.22
2023-05-23T07:11:10.559Z,99775.63
2023-05-23T07:13:16.000Z,99773.84
2023-05-23T07:15:21.140Z,99772.57
2023-05-23T07:17:26.657Z,99769.96
2023-05-23T07:19:32.217Z,99764.95
2023-05-23T07:21:37.557Z,99763.75
2023-05-23T07:23:42.796Z,99762.42
2023-05-23T07:26:03.229Z,99759.49
2023-05-23T07:28:08.734Z,99758.09
2023-05-23T07:30:13.973Z,99754
2023-05-23T07:32:19.507Z,99745.34
2023-05-23T07:34:24.956Z,99743.67
2023-05-23T07:36:30.314Z,99744.79
2023-05-23T07:38:35.504Z,99741.56
2023-05-23T07:40:41.196Z,99740.33
2023-05-23T07:42:46.909Z,99733.63
2023-05-23T07:44:52.175Z,99734.59
2023-05-23T07:46:57.652Z,99739.65
2023-05-23T07:49:03.333Z,99740.95
2023-05-23T07:51:08.774Z,99743.98
2023-05-23T07:53:14.123Z,99746.61
2023-05-23T07:55:19.580Z,99753.89
2023-05-23T07:57:24.990Z,99758.94
2023-05-23T07:59:30.331Z,99759.64
2023-05-23T08:01:35.745Z,99761.91
2023-05-23T08:03:41.113Z,99761.08
2023-05-23T08:05:46.550Z,99759.84
2023-05-23T08:07:51.774Z,99757.43
2023-05-23T08:09:57.029Z,99758.33
2023-05-23T08:12:02.636Z,99763.53
2023-05-23T08:14:09.254Z,99766.84
2023-05-23T08:16:14.909Z,99771.11
2023-05-23T08:18:20.282Z,99771.11
2023-05-23T08:20:25.670Z,99772.58
2023-05-23T08:22:30.903Z,99780.56
2023-05-23T08:24:36.349Z,99782.88
2023-05-23T08:26:41.682Z,99786.66
2023-05-23T08:28:47.010Z,99789.02
2023-05-23T08:30:52.358Z,99779.75
2023-05-23T08:32:57.732Z,99777.42
2023-05-23T08:35:03.147Z,99782.83
2023-05-23T08:37:08.573Z,99775.01
2023-05-23T08:39:15.478Z,99780.67
2023-05-23T08:41:20.991Z,99773.45
2023-05-23T08:43:29.250Z,99775.22
2023-05-23T08:45:35.285Z,99774.41
2023-05-23T08:47:41.226Z,99773.16
2023-05-23T08:49:47.192Z,99774.77
2023-05-23T08:51:52.528Z,99773.96
2023-05-23T08:53:58.081Z,99777.06
2023-05-23T08:56:03.656Z,99778.34
2023-05-23T08:58:09.314Z,99778.27
2023-05-23T09:00:14.846Z,99777.41
2023-05-23T09:02:20.613Z,99786.34
2023-05-23T09:04:26.250Z,99788.36
2023-05-23T09:06:32.821Z,99785.63
2023-05-23T09:08:38.030Z,99791.83
2023-05-23T09:10:43.884Z,99786.86
2023-05-23T09:12:49.237Z,99783.69
2023-05-23T09:14:54.489Z,99785.16
2023-05-23T09:17:00.880Z,99791.8
2023-05-23T09:19:09.088Z,99789.77
2023-05-23T09:21:14.900Z,99783.41
2023-05-23T09:23:20.952Z,99786.68
2023-05-23T09:25:26.397Z,99794.54
2023-05-23T09:27:33.170Z,99796.59
2023-05-23T09:29:38.993Z,99798.84
2023-05-23T09:31:44.830Z,99797.45
2023-05-23T09:33:50.785Z,99796.92
2023-05-23T09:35:56.854Z,99801.54
2023-05-23T09:38:03.081Z,99803.75
2023-05-23T09:40:08.576Z,99801.31
2023-05-23T09:42:14.539Z,99800.05
2023-05-23T09:44:20.165Z,99803.44
2023-05-23T09:46:25.417Z,99803.75
2023-05-23T09:48:31.056Z,99803.06
2023-05-23T09:50:36.601Z,99798.58
2023-05-23T09:52:42.146Z,99799.06
2023-05-23T09:54:47.675Z,99801.05
2023-05-23T09:56:53.033Z,99805.91
2023-05-23T09:58:58.356Z,99802.08
2023-05-23T10:01:04.024Z,99806.3
2023-05-23T10:03:09.912Z,99805.61
2023-05-23T10:05:15.395Z,99803.14
2023-05-23T10:07:20.717Z,99802.5
2023-05-23T10:09:26.078Z,99801.69
2023-05-23T10:11:31.510Z,99803.98
2023-05-23T10:13:37.818Z,99802.61
2023-05-23T10:15:42.960Z,99801.08
2023-05-23T10:17:48.360Z,99802.53
2023-05-23T10:19:53.648Z,99801.61
2023-05-23T10:21:58.727Z,99804.31
2023-05-23T10:24:03.798Z,99803.66
2023-05-23T10:26:08.982Z,99803.19
2023-05-23T10:28:14.527Z,99804.86
2023-05-23T10:30:19.970Z,99805.6
2023-05-23T10:32:25.675Z,99804.3
2023-05-23T10:34:31.066Z,99806.05
2023-05-23T10:36:36.386Z,99806.2
2023-05-23T10:38:41.826Z,99806.14
2023-05-23T10:40:47.647Z,99805.14
2023-05-23T10:42:53.334Z,99804.05
2023-05-23T10:44:59.664Z,99797.05
2023-05-23T10:47:06.122Z,99799.19
2023-05-23T10:49:11.390Z,99795.71
2023-05-23T10:51:16.970Z,99795.78
2023-05-23T10:53:22.457Z,99797.02
2023-05-23T10:55:28.001Z,99798.59
2023-05-23T10:57:33.429Z,99797.07
2023-05-23T10:59:39.086Z,99795.03
2023-05-23T11:01:44.500Z,99793.94
2023-05-23T11:03:55.013Z,99789.16
2023-05-23T11:06:01.441Z,99785.22
2023-05-23T11:08:07.004Z,99785.63
2023-05-23T11:10:13.107Z,99785.95
2023-05-23T11:12:20.328Z,99785.57
2023-05-23T11:14:25.967Z,99783.79
2023-05-23T11:16:31.494Z,99785.04
2023-05-23T11:18:37.572Z,99783.12
2023-05-23T11:20:43.414Z,99788.52
2023-05-23T11:22:48.852Z,99789.09
2023-05-23T11:24:54.899Z,99786.84
2023-05-23T11:27:00.171Z,99781.72
2023-05-23T11:29:05.585Z,99783.63
2023-05-23T11:31:11.131Z,99783.64
2023-05-23T11:33:17.057Z,99781.33
2023-05-23T11:35:23.139Z,99780
2023-05-23T11:37:28.863Z,99777.42
2023-05-23T11:39:34.446Z,99774.77
2023-05-23T11:41:39.879Z,99775.91
2023-05-23T11:43:45.214Z,99774.46
2023-05-23T11:45:50.678Z,99772.84
2023-05-23T11:47:56.319Z,99769.97
2023-05-23T11:50:01.950Z,99774.2
2023-05-23T11:52:07.454Z,99767.33
2023-05-23T11:54:13.039Z,99766.67
2023-05-23T11:56:18.696Z,99767.2
2023-05-23T11:58:24.112Z,99769.27
2023-05-23T12:00:29.579Z,99773.74
2023-05-23T12:02:35.145Z,99773.88
2023-05-23T12:04:40.671Z,99779.46
2023-05-23T12:06:46.182Z,99776.84
2023-05-23T12:08:51.721Z,99780.09
2023-05-23T12:10:57.213Z,99779.09
2023-05-23T12:13:02.620Z,99778.98
2023-05-23T12:15:08.265Z,99778.95
2023-05-23T12:17:14.463Z,99777
2023-05-23T12:19:20.496Z,99779.23
2023-05-23T12:21:25.973Z,99774.1
2023-05-23T12:23:34.843Z,99773.98
2023-05-23T12:25:40.937Z,99772.67
2023-05-23T12:27:47.130Z,99778.07
2023-05-23T12:29:52.652Z,99780.65
2023-05-23T12:31:58.127Z,99772.66
2023-05-23T12:34:03.575Z,99774.81
2023-05-23T12:36:09.112Z,99775.63
2023-05-23T12:38:14.661Z,99772.51
2023-05-23T12:40:20.196Z,99771.88
2023-05-23T12:42:25.679Z,99767.66
2023-05-23T12:44:33.513Z,99765.37
2023-05-23T12:46:38.886Z,99766.33
2023-05-23T12:48:44.259Z,99764.53
2023-05-23T12:50:49.852Z,99761.91
2023-05-23T12:52:55.397Z,99764.03
2023-05-23T12:55:00.938Z,99765.23
2023-05-23T12:57:06.369Z,99760.34
2023-05-23T12:59:11.681Z,99758.76
2023-05-23T13:01:17.664Z,99756.41
2023-05-23T13:03:23.182Z,99754.45
2023-05-23T13:05:28.620Z,99751.13
2023-05-23T13:07:34.054Z,99741.19
2023-05-23T13:09:39.559Z,99739.73
2023-05-23T13:11:45.035Z,99735.94
2023-05-23T13:13:50.429Z,99736.08
2023-05-23T13:15:55.829Z,99733.35
2023-05-23T13:18:02.044Z,99735.33
2023-05-23T13:20:07.779Z,99729
2023-05-23T13:22:13.161Z,99728.69
2023-05-23T13:24:18.404Z,99727.08
2023-05-23T13:26:23.687Z,99724.96
2023-05-23T13:28:29.061Z,99722.37
2023-05-23T13:30:34.631Z,99721.73
2023-05-23T13:32:40.080Z,99720.84
2023-05-23T13:34:45.718Z,99714.25
2023-05-23T13:36:51.040Z,99722.75
2023-05-23T13:38:56.377Z,99724.52
2023-05-23T13:41:01.734Z,99727.73
2023-05-23T13:43:06.958Z,99730.03
2023-05-23T13:45:12.406Z,99728.34
2023-05-23T13:47:17.964Z,99729.13
2023-05-23T13:49:23.277Z,99731.77
2023-05-23T13:51:28.517Z,99730.34
2023-05-23T13:53:34.020Z,99734.18
2023-05-23T13:55:39.197Z,99737.66
2023-05-23T13:57:44.451Z,99738.05
2023-05-23T13:59:49.774Z,99735.27
2023-05-23T14:01:55.233Z,99738.13
2023-05-23T14:04:00.682Z,99734.98
2023-05-23T14:06:06.084Z,99736.3
2023-05-23T14:08:11.593Z,99740.95
2023-05-23T14:10:16.832Z,99741.2
2023-05-23T14:12:22.376Z,99741.56
2023-05-23T14:14:27.769Z,99751.57
2023-05-23T14:16:34.534Z,99751.6
2023-05-23T14:18:40.062Z,99754.59
2023-05-23T14:20:45.501Z,99756.84
2023-05-23T14:22:51.055Z,99756.09
2023-05-23T14:24:56.389Z,99761.97
2023-05-23T14:27:01.838Z,99765.16
2023-05-23T14:29:07.142Z,99771.93
2023-05-23T14:31:12.415Z,99767.72
2023-05-23T14:33:18.019Z,99770.11
2023-05-23T14:35:23.588Z,99767.98
2023-05-23T14:37:29.128Z,99770.19
2023-05-23T14:39:34.794Z,99768.71
2023-05-23T14:41:40.844Z,99773.14
2023-05-23T14:43:46.509Z,99774.11
2023-05-23T14:45:54.200Z,99771.83
2023-05-23T14:47:59.841Z,99769.53
2023-05-23T14:50:05.174Z,99767.31
2023-05-23T14:52:10.563Z,99767.77
2023-05-23T14:54:15.857Z,99771.16
2023-05-23T14:56:21.387Z,99769.14
2023-05-23T14:58:26.733Z,99769.41
2023-05-23T15:00:32.054Z,99770.44
2023-05-23T15:02:37.610Z,99769.88
2023-05-23T15:04:43.119Z,99763.55
2023-05-23T15:06:48.502Z,99759.02
2023-05-23T15:08:53.827Z,99761.55
2023-05-23T15:10:59.274Z,99759.17
2023-05-23T15:13:04.808Z,99757.36
2023-05-23T15:15:10.048Z,99758.02
2023-05-23T15:17:15.274Z,99756.94
2023-05-23T15:19:20.477Z,99755.45
2023-05-23T15:21:25.722Z,99754.81
2023-05-23T15:23:31.090Z,99757.18
2023-05-23T15:25:50.884Z,99758.22
2023-05-23T15:27:56.618Z,99758.61
2023-05-23T15:30:02.068Z,99756.06
2023-05-23T15:32:07.485Z,99754.2
2023-05-23T15:34:12.796Z,99751.7
2023-05-23T15:36:18.060Z,99753.69
2023-05-23T15:38:23.282Z,99749.38
2023-05-23T15:40:28.448Z,99750.45
2023-05-23T15:42:33.766Z,99747.14
2023-05-23T15:44:39.387Z,99750.38
2023-05-23T15:46:44.988Z,99749.32
2023-05-23T15:48:50.405Z,99754.99
2023-05-23T15:50:55.842Z,99756.22
2023-05-23T15:53:01.179Z,99756.64
2023-05-23T15:55:06.530Z,99752.55
2023-05-23T15:57:11.669Z,99757.2
2023-05-23T15:59:16.988Z,99751.66
2023-05-23T16:01:22.466Z,99744.95
2023-05-23T16:03:27.947Z,99740.75
2023-05-23T16:05:33.210Z,99732.67
2023-05-23T16:07:38.661Z,99725.47
2023-05-23T16:09:43.996Z,99720.14
2023-05-23T16:11:49.294Z,99721.07
2023-05-23T16:13:54.657Z,99726.78
2023-05-23T16:16:00.132Z,99736.73
2023-05-23T16:18:05.553Z,99737.73
2023-05-23T16:20:10.857Z,99736.25
2023-05-23T16:22:16.024Z,99734.26
2023-05-23T16:24:21.359Z,99737.02
2023-05-23T16:26:26.799Z,99735.97
2023-05-23T16:28:32.049Z,99732.68
2023-05-23T16:30:37.396Z,99728.45
2023-05-23T16:32:42.870Z,99717.34
2023-05-23T16:34:54.861Z,99716.62
2023-05-23T16:37:00.079Z,99721.8
2023-05-23T16:39:05.334Z,99724.48
2023-05-23T16:41:10.706Z,99731.7
2023-05-23T16:43:16.118Z,99736.8
2023-05-23T16:45:21.298Z,99732.93
2023-05-23T16:47:26.763Z,99738.75
2023-05-23T16:49:32.112Z,99747.66
2023-05-23T16:51:37.414Z,99747.16
2023-05-23T16:53:42.757Z,99744.75
2023-05-23T16:55:48.084Z,99745.7
2023-05-23T16:57:53.414Z,99741.73
2023-05-23T16:59:58.797Z,99741.66
2023-05-23T17:02:04.108Z,99743.78
2023-05-23T17:04:09.428Z,99745.31
2023-05-23T17:06:14.682Z,99750.2
2023-05-23T17:08:20.014Z,99751.77
2023-05-23T17:10:25.349Z,99753.25
2023-05-23T17:12:30.692Z,99757.81
2023-05-23T17:14:35.815Z,99759.96
2023-05-23T17:16:41.165Z,99764.33
2023-05-23T17:18:46.508Z,99769.06
2023-05-23T17:20:51.828Z,99774.52
2023-05-23T17:22:57.271Z,99775.95
2023-05-23T17:25:02.714Z,99783.27
2023-05-23T17:27:07.947Z,99779.13
2023-05-23T17:29:13.490Z,99780.38
2023-05-23T17:31:18.779Z,99778.14
2023-05-23T17:33:24.061Z,99776.75
2023-05-23T17:35:29.400Z,99778.72
2023-05-23T17:37:37.411Z,99787.49
2023-05-23T17:39:42.626Z,99795.84
2023-05-23T17:41:47.871Z,99800.19
2023-05-23T17:43:53.310Z,99800.2
2023-05-23T17:45:59.529Z,99797.48
2023-05-23T17:48:05.298Z,99794.91
2023-05-23T17:50:10.596Z,99801.33
2023-05-23T17:52:15.901Z,99801.98
2023-05-23T17:54:21.163Z,99801.22
2023-05-23T17:56:26.471Z,99803.89
2023-05-23T17:58:32.070Z,99803.56
2023-05-23T18:00:37.464Z,99804.9
2023-05-23T18:02:42.807Z,99803.86
2023-05-23T18:04:48.132Z,99803.84
2023-05-23T18:06:53.358Z,99801.98
2023-05-23T18:08:58.596Z,99805.53
2023-05-23T18:11:04.048Z,99808.05
2023-05-23T18:13:09.374Z,99812.08
2023-05-23T18:15:14.611Z,99823.5
2023-05-23T18:17:20.057Z,99827.66
2023-05-23T18:19:25.460Z,99826.67
2023-05-23T18:21:30.781Z,99830.25
2023-05-23T18:23:36.061Z,99833.06
2023-05-23T18:25:41.397Z,99843.63
2023-05-23T18:27:46.836Z,99851.5
2023-05-23T18:29:51.977Z,99847.31
2023-05-23T18:31:57.469Z,99855.66
2023-05-23T18:34:02.930Z,99858.77
2023-05-23T18:36:08.466Z,99858.44
2023-05-23T18:38:13.736Z,99859.72
2023-05-23T18:40:18.989Z,99860.11
2023-05-23T18:42:24.408Z,99866.22
2023-05-23T18:44:29.657Z,99873.16
2023-05-23T18:46:35.061Z,99869.16
2023-05-23T18:48:40.593Z,99872.47
2023-05-23T18:50:46.143Z,99875.89
2023-05-23T18:52:51.412Z,99875.27
2023-05-23T18:54:56.524Z,99874.84
2023-05-23T18:57:01.674Z,99872.66
2023-05-23T18:59:07.032Z,99874.36
2023-05-23T19:01:12.262Z,99882.69
2023-05-23T19:03:18.060Z,99890.02
2023-05-23T19:05:23.430Z,99894.97
2023-05-23T19:07:28.672Z,99893.22
2023-05-23T19:09:34.011Z,99900.92
2023-05-23T19:11:39.345Z,99905.75
2023-05-23T19:13:44.702Z,99905
2023-05-23T19:15:50.029Z,99912.02
2023-05-23T19:17:55.401Z,99908.9
2023-05-23T19:20:00.806Z,99921.02
2023-05-23T19:22:06.045Z,99918.91
2023-05-23T19:24:11.594Z,99914.03
2023-05-23T19:26:19.216Z,99920.11
2023-05-23T19:28:25.244Z,99924
2023-05-23T19:30:30.473Z,99922.17
2023-05-23T19:32:35.702Z,99920.04
2023-05-23T19:34:40.990Z,99928.72
2023-05-23T19:36:46.323Z,99920.14
2023-05-23T19:38:51.600Z,99917.36
2023-05-23T19:40:57.062Z,99925.68
2023-05-23T19:43:02.390Z,99916.31
2023-05-23T19:45:07.707Z,99922.28
2023-05-23T19:47:12.893Z,99927.19
2023-05-23T19:49:18.175Z,99921.8
2023-05-23T19:51:23.535Z,99923.41
2023-05-23T19:53:28.889Z,99921.45
2023-05-23T19:55:34.133Z,99920.95
2023-05-23T19:57:39.454Z,99923.5
2023-05-23T19:59:44.830Z,99927.24
2023-05-23T20:01:50.260Z,99921.39
2023-05-23T20:03:55.779Z,99928.3
2023-05-23T20:06:01.218Z,99926.05
2023-05-23T20:08:06.472Z,99927.19
2023-05-23T20:10:11.726Z,99933.28
2023-05-23T20:12:17.011Z,99929.77
2023-05-23T20:14:22.348Z,99936.36
2023-05-23T20:16:27.818Z,99938
2023-05-23T20:18:33.228Z,99943.9
2023-05-23T20:20:38.470Z,99947.95
2023-05-23T20:22:44.007Z,99943.89
2023-05-23T20:24:49.129Z,99940.44
2023-05-23T20:26:54.370Z,99942.21
2023-05-23T20:28:59.827Z,99946.63
2023-05-23T20:31:05.168Z,99951.49
2023-05-23T20:33:11.251Z,99953.72
2023-05-23T20:35:19.819Z,99949.92
2023-05-23T20:37:25.179Z,99956.82
2023-05-23T20:39:30.510Z,99952.25
2023-05-23T20:41:35.756Z,99955.28
2023-05-23T20:43:41.025Z,99966.42
2023-05-23T20:45:46.319Z,99970.93
2023-05-23T20:47:51.666Z,99973.18
2023-05-23T20:49:56.882Z,99977.73
2023-05-23T20:52:02.232Z,99980.31
2023-05-23T20:54:07.670Z,99977.53
2023-05-23T20:56:13.103Z,99990.02
2023-05-23T20:58:18.482Z,99981.89
2023-05-23T21:00:23.765Z,99986.73
2023-05-23T21:02:29.380Z,99988.44
2023-05-23T21:04:35.062Z,99989.66
2023-05-23T21:06:40.413Z,99987.55
2023-05-23T21:08:46.053Z,99987.27
2023-05-23T21:10:55.538Z,99986.06
2023-05-23T21:13:01.018Z,99990.8
2023-05-23T21:15:06.307Z,99987.53
2023-05-23T21:17:11.689Z,99994.28
2023-05-23T21:19:17.277Z,99992.16
2023-05-23T21:21:22.576Z,99987.53
2023-05-23T21:23:28.028Z,99991.31
2023-05-23T21:25:34.268Z,99990.67
2023-05-23T21:27:39.624Z,99989.13
2023-05-23T21:29:45.076Z,99989.88
2023-05-23T21:31:50.502Z,99988.06
2023-05-23T21:33:55.832Z,99992.02
2023-05-23T21:36:02.223Z,99993.77
2023-05-23T21:38:07.541Z,99995.63
2023-05-23T21:40:12.838Z,99996.2
2023-05-23T21:42:18.165Z,100001.7
2023-05-23T21:44:23.455Z,99999.74
2023-05-23T21:46:28.882Z,100002.41
2023-05-23T21:48:34.219Z,100007.62
2023-05-23T21:50:39.727Z,100002.98
2023-05-23T21:52:45.295Z,100007.64
2023-05-23T21:54:50.652Z,100003.41
2023-05-23T21:56:55.987Z,99999.33
2023-05-23T21:59:01.373Z,100004.84
2023-05-23T22:01:06.711Z,100004.45
2023-05-23T22:03:12.245Z,100002.25
2023-05-23T22:05:17.675Z,100006.47
2023-05-23T22:07:23.077Z,100008.27
2023-05-23T22:09:28.518Z,100014.7
2023-05-23T22:11:33.933Z,100023.52
2023-05-23T22:13:39.448Z,100020.99
2023-05-23T22:15:44.734Z,100019.39
2023-05-23T22:17:50.058Z,100025.63
2023-05-23T22:19:55.415Z,100018.96
2023-05-23T22:22:00.752Z,100028.06
2023-05-23T22:24:06.186Z,100034.66
2023-05-23T22:26:11.553Z,100033.3
2023-05-23T22:28:17.080Z,100040.28
2023-05-23T22:30:22.411Z,100038.31
2023-05-23T22:32:27.860Z,100039.32
2023-05-23T22:34:33.291Z,100036.63
2023-05-23T22:36:38.746Z,100038.02
2023-05-23T22:38:44.072Z,100048.5
2023-05-23T22:40:49.463Z,100038.61
2023-05-23T22:42:54.618Z,100036.67
2023-05-23T22:44:59.874Z,100040.22
2023-05-23T22:47:05.263Z,100048.69
2023-05-23T22:49:10.675Z,100035.49
2023-05-23T22:51:16.192Z,100039.25
2023-05-23T22:53:21.431Z,100037.67
2023-05-23T22:55:26.872Z,100038.91
2023-05-23T22:57:32.205Z,100036.15
2023-05-23T22:59:37.549Z,100033.99
2023-05-23T23:01:43.201Z,100039.27
2023-05-23T23:03:48.796Z,100035.08
2023-05-23T23:05:54.169Z,100028.5
2023-05-23T23:07:59.517Z,100031.3
2023-05-23T23:10:04.759Z,100030.59
2023-05-23T23:12:10.086Z,100026.61
2023-05-23T23:14:15.319Z,100025.5
2023-05-23T23:16:20.630Z,100032.41
2023-05-23T23:18:25.993Z,100032.16
2023-05-23T23:20:31.528Z,100033.63
2023-05-23T23:22:36.902Z,100041.17
2023-05-23T23:24:42.067Z,100040.78
2023-05-23T23:26:47.447Z,100039.59
2023-05-23T23:28:53.196Z,100043.38
2023-05-23T23:30:58.422Z,100044.66
2023-05-23T23:33:03.906Z,100039.13
2023-05-23T23:35:09.332Z,100042.53
2023-05-23T23:37:14.662Z,100040.67
2023-05-23T23:39:20.091Z,100046.14
2023-05-23T23:41:25.529Z,100046.04
2023-05-23T23:43:31.070Z,100047.59
2023-05-23T23:45:36.507Z,100057.57
2023-05-23T23:47:42.057Z,100055.02
2023-05-23T23:49:47.490Z,100052.91
2023-05-23T23:51:52.728Z,100062.13
2023-05-23T23:53:57.962Z,100062.7
2023-05-23T23:56:03.305Z,100063.14
2023-05-23T23:58:08.642Z,100074.8
